createdAt,value
2023-01-30T00:05:42.906Z,2.20
2023-01-30T00:11:44.969Z,2.30
2023-01-30T00:17:46.961Z,2.30
2023-01-30T00:23:49.055Z,2.50
2023-01-30T00:30:02.218Z,2.50
2023-01-30T00:36:05.548Z,2.50
2023-01-30T00:42:26.261Z,2.60
2023-01-30T00:48:28.426Z,2.60
2023-01-30T00:54:31.181Z,2.70
2023-01-30T01:00:33.926Z,2.70
2023-01-30T01:06:38.740Z,2.70
2023-01-30T01:12:40.867Z,2.80
2023-01-30T01:18:42.707Z,2.80
2023-01-30T01:24:44.533Z,2.80
2023-01-30T01:30:46.448Z,2.70
2023-01-30T01:36:53.885Z,2.70
2023-01-30T01:42:56.415Z,2.70
2023-01-30T01:49:00.873Z,2.70
2023-01-30T01:55:06.140Z,2.70
2023-01-30T02:01:08.572Z,2.80
2023-01-30T02:07:11.137Z,2.80
2023-01-30T02:13:13.141Z,2.80
2023-01-30T02:19:46.967Z,2.80
2023-01-30T02:26:10.210Z,2.80
2023-01-30T02:32:27.195Z,2.90
2023-01-30T02:38:50.481Z,3.00
2023-01-30T02:45:12.633Z,3.10
2023-01-30T02:51:18.094Z,3.20
2023-01-30T02:57:25.198Z,3.20
2023-01-30T03:03:32.914Z,3.20
2023-01-30T03:09:49.348Z,3.30
2023-01-30T03:15:58.025Z,3.40
2023-01-30T03:22:00.288Z,3.40
2023-01-30T03:28:04.077Z,3.40
2023-01-30T03:34:05.999Z,3.50
2023-01-30T03:40:08.768Z,3.60
2023-01-30T03:46:10.669Z,3.70
2023-01-30T03:52:12.589Z,3.70
2023-01-30T03:58:14.488Z,3.80
2023-01-30T04:04:16.351Z,3.80
2023-01-30T04:10:20.795Z,3.90
2023-01-30T04:16:27.539Z,3.90
2023-01-30T04:22:29.463Z,4.00
2023-01-30T04:28:31.401Z,4.00
2023-01-30T04:34:33.288Z,4.00
2023-01-30T04:40:35.141Z,4.10
2023-01-30T04:46:37.210Z,4.10
2023-01-30T04:52:39.980Z,4.30
2023-01-30T04:58:41.840Z,4.30
2023-01-30T05:04:43.713Z,4.40
2023-01-30T05:10:45.517Z,4.50
2023-01-30T05:16:47.638Z,4.70
2023-01-30T05:22:49.716Z,4.80
2023-01-30T05:28:54.623Z,4.90
2023-01-30T05:34:56.520Z,5.00
2023-01-30T05:41:02.611Z,5.00
2023-01-30T05:47:04.517Z,5.10
2023-01-30T05:53:06.333Z,5.00
2023-01-30T05:59:11.177Z,5.10
2023-01-30T06:05:12.961Z,5.20
2023-01-30T06:11:16.787Z,5.30
2023-01-30T06:17:18.770Z,5.30
2023-01-30T06:23:21.413Z,5.20
2023-01-30T06:29:23.376Z,5.20
2023-01-30T06:35:25.213Z,5.30
2023-01-30T06:41:26.977Z,5.30
2023-01-30T06:47:28.814Z,5.30
2023-01-30T06:53:30.927Z,5.30
2023-01-30T06:59:32.787Z,5.30
2023-01-30T07:05:34.953Z,5.30
2023-01-30T07:11:36.811Z,5.30
2023-01-30T07:17:41.882Z,5.50
2023-01-30T07:23:44.278Z,5.40
2023-01-30T07:29:46.296Z,5.40
2023-01-30T07:35:48.453Z,5.30
2023-01-30T07:41:50.709Z,5.30
2023-01-30T07:47:53.744Z,5.40
2023-01-30T07:53:55.800Z,5.50
2023-01-30T07:59:57.832Z,5.40
2023-01-30T08:06:00.227Z,5.40
2023-01-30T08:12:02.088Z,5.40
2023-01-30T08:18:04.233Z,5.50
2023-01-30T08:24:06.759Z,5.40
2023-01-30T08:30:10.459Z,5.50
2023-01-30T08:36:12.345Z,5.50
2023-01-30T08:42:14.150Z,5.60
2023-01-30T08:48:16.032Z,5.60
2023-01-30T08:54:17.926Z,5.60
2023-01-30T09:00:20.559Z,5.60
2023-01-30T09:06:24.478Z,5.70
2023-01-30T09:12:27.985Z,5.70
2023-01-30T09:18:29.867Z,5.80
2023-01-30T09:24:31.841Z,5.80
2023-01-30T09:30:34.585Z,5.80
2023-01-30T09:36:36.488Z,5.80
2023-01-30T09:43:00.131Z,5.80
2023-01-30T09:49:18.552Z,5.90
2023-01-30T09:55:26.685Z,6.10
2023-01-30T10:01:31.797Z,6.10
2023-01-30T10:07:57.914Z,6.10
2023-01-30T10:14:11.700Z,5.90
2023-01-30T10:20:31.731Z,6.00
2023-01-30T10:26:34.064Z,6.00
2023-01-30T10:32:56.022Z,6.10
2023-01-30T10:39:01.415Z,6.20
2023-01-30T10:45:15.633Z,6.20
2023-01-30T10:51:30.469Z,6.10
2023-01-30T10:57:54.422Z,6.10
2023-01-30T11:04:03.225Z,6.00
2023-01-30T11:10:19.297Z,6.10
2023-01-30T11:16:21.427Z,6.10
2023-01-30T11:22:27.175Z,6.10
2023-01-30T11:28:48.680Z,6.30
2023-01-30T11:35:09.117Z,6.30
2023-01-30T11:41:11.102Z,6.10
2023-01-30T11:47:25.611Z,6.30
2023-01-30T11:53:42.040Z,6.30
2023-01-30T11:59:56.575Z,6.10
2023-01-30T12:05:59.879Z,5.60
2023-01-30T12:12:01.838Z,5.30
2023-01-30T12:18:26.231Z,5.10
2023-01-30T12:24:37.656Z,5.10
2023-01-30T12:30:47.825Z,5.30
2023-01-30T12:37:14.163Z,5.30
2023-01-30T12:43:22.026Z,5.10
2023-01-30T12:49:58.596Z,4.50
2023-01-30T12:56:11.945Z,4.80
2023-01-30T13:02:39.942Z,5.10
2023-01-30T13:09:19.385Z,5.30
2023-01-30T13:15:44.680Z,5.40
2023-01-30T13:22:08.061Z,5.40
2023-01-30T13:28:16.494Z,5.60
2023-01-30T13:34:31.724Z,5.70
2023-01-30T13:40:41.782Z,5.90
2023-01-30T13:46:44.872Z,6.20
2023-01-30T13:53:36.216Z,6.30
2023-01-30T14:00:24.761Z,6.10
2023-01-30T14:06:39.466Z,6.30
2023-01-30T14:12:53.654Z,6.30
2023-01-30T14:18:55.573Z,6.30
2023-01-30T14:25:25.216Z,6.30
2023-01-30T14:31:48.979Z,6.30
2023-01-30T14:38:05.016Z,6.30
2023-01-30T14:44:07.718Z,6.30
2023-01-30T14:50:22.722Z,6.20
2023-01-30T14:56:45.654Z,6.20
2023-01-30T15:02:52.351Z,6.10
2023-01-30T15:08:54.404Z,6.10
2023-01-30T15:15:15.537Z,6.10
2023-01-30T15:21:23.487Z,6.20
2023-01-30T15:27:29.418Z,6.10
2023-01-30T15:41:14.860Z,6.10
2023-01-30T15:47:25.765Z,6.20
2023-01-30T15:53:34.770Z,6.10
2023-01-30T15:59:40.157Z,6.10
2023-01-30T16:05:50.290Z,6.10
2023-01-30T16:11:52.889Z,6.10
2023-01-30T16:18:05.650Z,6.00
2023-01-30T16:24:13.929Z,6.00
2023-01-30T16:30:25.565Z,6.00
2023-01-30T16:36:27.367Z,6.00
2023-01-30T16:42:31.123Z,6.00
2023-01-30T16:48:35.375Z,6.00
2023-01-30T16:54:39.640Z,5.60
2023-01-30T17:00:42.746Z,5.10
2023-01-30T17:06:48.801Z,4.90
2023-01-30T17:12:53.247Z,4.80
2023-01-30T17:18:58.328Z,4.80
2023-01-30T17:25:05.927Z,4.60
2023-01-30T17:31:15.478Z,4.50
2023-01-30T17:37:22.517Z,4.50
2023-01-30T17:43:25.122Z,4.70
2023-01-30T17:49:27.280Z,5.00
2023-01-30T17:55:29.386Z,5.10
2023-01-30T18:01:31.588Z,5.30
2023-01-30T18:07:34.266Z,5.30
2023-01-30T18:13:36.553Z,5.30
2023-01-30T18:19:38.464Z,5.10
2023-01-30T18:25:40.209Z,5.30
2023-01-30T18:31:43.224Z,5.30
2023-01-30T18:37:45.366Z,5.30
2023-01-30T18:43:48.578Z,5.40
2023-01-30T18:49:50.442Z,5.40
2023-01-30T18:55:52.354Z,5.40
2023-01-30T19:01:54.226Z,5.40
2023-01-30T19:07:56.241Z,5.40
2023-01-30T19:13:59.072Z,5.40
2023-01-30T19:20:02.469Z,5.40
2023-01-30T19:26:04.535Z,5.30
2023-01-30T19:32:06.348Z,5.30
2023-01-30T19:38:08.782Z,5.30
2023-01-30T19:44:11.818Z,5.30
2023-01-30T19:50:13.755Z,5.20
2023-01-30T19:56:16.079Z,5.10
2023-01-30T20:02:17.876Z,5.20
2023-01-30T20:08:32.001Z,5.20
2023-01-30T20:14:34.440Z,5.20
2023-01-30T20:20:36.239Z,5.10
2023-01-30T20:26:39.880Z,5.00
2023-01-30T20:32:42.831Z,4.90
2023-01-30T20:38:46.553Z,4.80
2023-01-30T20:44:48.370Z,4.60
2023-01-30T20:50:50.082Z,4.70
2023-01-30T20:56:53.932Z,4.90
2023-01-30T21:02:55.858Z,4.90
2023-01-30T21:08:57.719Z,4.90
2023-01-30T21:14:59.567Z,5.00
2023-01-30T21:21:02.466Z,4.90
2023-01-30T21:27:04.566Z,4.90
2023-01-30T21:33:06.647Z,4.90
2023-01-30T21:39:31.966Z,4.80
2023-01-30T21:45:33.888Z,4.70
2023-01-30T21:51:36.732Z,4.70
2023-01-30T21:57:38.987Z,4.50
2023-01-30T22:03:41.057Z,4.50
2023-01-30T22:09:42.992Z,4.50
2023-01-30T22:15:44.785Z,4.40
2023-01-30T22:21:46.913Z,4.40
2023-01-30T22:27:48.907Z,4.40
2023-01-30T22:33:53.870Z,4.50
2023-01-30T22:39:55.784Z,4.40
2023-01-30T22:46:00.676Z,4.50
2023-01-30T22:52:02.750Z,4.40
2023-01-30T22:58:04.558Z,4.40
2023-01-30T23:04:18.624Z,4.30
2023-01-30T23:10:20.566Z,4.20
2023-01-30T23:16:26.627Z,4.10
2023-01-30T23:22:28.519Z,4.10
2023-01-30T23:28:30.302Z,4.00
2023-01-30T23:34:32.354Z,3.90
2023-01-30T23:40:34.127Z,3.90
2023-01-30T23:46:38.953Z,3.90
2023-01-30T23:52:44.014Z,3.90
2023-01-30T23:58:46.327Z,4.00
